Terminal Aerodrome Forecast
Issued by NWS

Home | Current Version | Previous Version | Text Only | Print | Product List | Glossary On
Versions: 1 2 3 4 5 6 7 8 9 10 11 12
000
FTUS46 KSTO 240536
TAFSAC
TAF
KSAC 240536Z 2406/2506 21011KT P6SM OVC200
     FM241000 15011KT P6SM -RA OVC100
      TEMPO 2417/2421 OVC020
     FM242100 21010KT P6SM VCSH OVC030
     FM250200 22008KT P6SM SCT030 OVC100=

USA.gov is the U.S. government's official web portal to all federal, state and local government web resources and services.